createdAt,value
2019-02-14T00:02:28.546Z,3.83
2019-02-14T00:04:57.568Z,3.79
2019-02-14T00:07:26.591Z,3.76
2019-02-14T00:20:32.857Z,3.60
2019-02-14T00:23:01.858Z,3.55
2019-02-14T00:25:30.844Z,3.49
2019-02-14T00:27:59.922Z,3.40
2019-02-14T00:30:28.925Z,3.30
2019-02-14T00:32:57.966Z,3.25
2019-02-14T00:35:26.987Z,3.23
2019-02-14T00:37:55.978Z,3.24
2019-02-14T00:40:25.020Z,3.26
2019-02-14T00:42:54.003Z,3.29
2019-02-14T00:45:23.018Z,3.30
2019-02-14T00:47:52.035Z,3.31
2019-02-14T00:50:21.055Z,3.32
2019-02-14T00:52:50.042Z,3.33
2019-02-14T00:55:19.042Z,3.32
2019-02-14T00:57:49.945Z,3.31
2019-02-14T01:00:18.952Z,3.27
2019-02-14T01:02:47.932Z,3.26
2019-02-14T01:05:16.921Z,3.25
2019-02-14T01:07:45.983Z,3.24
2019-02-14T01:10:14.993Z,3.23
2019-02-14T01:12:44.176Z,3.22
2019-02-14T01:15:14.229Z,3.18
2019-02-14T01:17:43.215Z,3.15
2019-02-14T01:20:12.215Z,3.08
2019-02-14T01:22:41.211Z,3.03
2019-02-14T01:25:10.200Z,2.95
2019-02-14T01:27:39.222Z,2.86
2019-02-14T01:30:09.238Z,2.82
2019-02-14T01:32:38.217Z,2.80
2019-02-14T01:35:07.476Z,1.25
2019-02-14T01:37:36.456Z,2.81
2019-02-14T01:40:05.703Z,2.82
2019-02-14T01:42:34.700Z,2.81
2019-02-14T01:45:03.738Z,2.81
2019-02-14T01:47:32.732Z,2.82
2019-02-14T01:50:01.748Z,2.81
2019-02-14T01:52:30.744Z,2.81
2019-02-14T01:54:59.721Z,2.80
2019-02-14T01:57:28.701Z,2.80
2019-02-14T01:59:57.707Z,2.78
2019-02-14T02:02:26.754Z,2.77
2019-02-14T02:04:55.768Z,2.76
2019-02-14T02:07:24.757Z,2.70
2019-02-14T02:09:55.499Z,2.67
2019-02-14T02:12:24.488Z,2.64
2019-02-14T02:14:53.480Z,2.64
2019-02-14T02:17:22.475Z,2.62
2019-02-14T02:19:51.569Z,2.59
2019-02-14T02:22:20.567Z,2.53
2019-02-14T02:24:49.579Z,2.50
2019-02-14T02:27:18.561Z,2.50
2019-02-14T02:29:47.554Z,2.50
2019-02-14T02:32:16.544Z,2.49
2019-02-14T02:34:45.616Z,2.51
2019-02-14T02:37:14.613Z,2.52
2019-02-14T02:39:43.574Z,2.50
2019-02-14T02:42:12.567Z,2.48
2019-02-14T02:44:41.573Z,2.45
2019-02-14T02:47:10.578Z,2.44
2019-02-14T02:49:39.538Z,2.45
2019-02-14T02:52:08.524Z,2.45
2019-02-14T02:54:37.527Z,2.46
2019-02-14T02:57:06.521Z,2.49
2019-02-14T02:59:35.572Z,2.50
2019-02-14T03:02:04.559Z,2.51
2019-02-14T03:04:33.534Z,2.49
2019-02-14T03:07:02.522Z,2.47
2019-02-14T03:09:31.513Z,2.43
2019-02-14T03:12:00.544Z,2.40
2019-02-14T03:14:29.501Z,2.38
2019-02-14T03:16:58.475Z,2.36
2019-02-14T03:19:27.467Z,2.36
2019-02-14T03:21:56.503Z,2.36
2019-02-14T03:24:25.502Z,2.37
2019-02-14T03:26:54.513Z,2.37
2019-02-14T03:29:23.506Z,2.34
2019-02-14T03:31:52.527Z,2.33
2019-02-14T03:34:21.518Z,2.33
2019-02-14T03:36:50.523Z,2.31
2019-02-14T03:39:19.511Z,2.31
2019-02-14T03:41:48.490Z,2.30
2019-02-14T03:44:17.478Z,2.31
2019-02-14T03:46:46.480Z,2.28
2019-02-14T03:49:15.466Z,2.27
2019-02-14T03:51:44.492Z,2.25
2019-02-14T03:54:13.470Z,2.22
2019-02-14T03:56:42.452Z,2.16
2019-02-14T03:59:11.464Z,2.12
2019-02-14T04:01:40.470Z,2.08
2019-02-14T04:04:09.462Z,2.06
2019-02-14T04:06:38.465Z,2.05
2019-02-14T04:09:08.618Z,2.03
2019-02-14T04:11:37.649Z,2.06
2019-02-14T04:14:06.654Z,2.06
2019-02-14T04:16:35.649Z,2.06
2019-02-14T04:19:04.644Z,2.03
2019-02-14T04:21:33.623Z,2.01
2019-02-14T04:24:02.622Z,2.00
2019-02-14T04:26:31.635Z,1.99
2019-02-14T04:29:00.644Z,2.00
2019-02-14T04:31:29.623Z,1.99
2019-02-14T04:33:58.609Z,1.99
2019-02-14T04:36:35.538Z,1.98
2019-02-14T04:38:58.363Z,1.94
2019-02-14T04:41:27.355Z,1.93
2019-02-14T04:43:56.405Z,1.92
2019-02-14T04:46:25.402Z,1.88
2019-02-14T04:48:54.386Z,1.86
2019-02-14T04:51:23.394Z,1.85
2019-02-14T04:53:52.407Z,1.83
2019-02-14T04:56:21.405Z,1.85
2019-02-14T04:58:50.398Z,1.87
2019-02-14T05:01:19.424Z,1.90
2019-02-14T05:03:48.399Z,1.90
2019-02-14T05:06:17.392Z,1.94
2019-02-14T05:08:46.395Z,1.88
2019-02-14T05:11:15.392Z,1.84
2019-02-14T05:13:44.376Z,1.83
2019-02-14T05:16:13.371Z,1.82
2019-02-14T05:18:42.392Z,1.79
2019-02-14T05:21:11.400Z,1.76
2019-02-14T05:23:40.420Z,1.76
2019-02-14T05:26:09.409Z,1.75
2019-02-14T05:28:38.403Z,1.75
2019-02-14T05:31:07.391Z,1.76
2019-02-14T05:33:36.395Z,1.76
2019-02-14T05:36:05.399Z,1.78
2019-02-14T05:38:34.416Z,1.76
2019-02-14T05:41:03.455Z,1.73
2019-02-14T05:43:32.429Z,1.72
2019-02-14T05:46:01.421Z,1.67
2019-02-14T05:48:30.432Z,1.62
2019-02-14T05:50:59.425Z,1.62
2019-02-14T05:53:28.506Z,1.61
2019-02-14T05:55:57.537Z,1.62
2019-02-14T05:58:26.540Z,1.64
2019-02-14T06:00:55.564Z,1.64
2019-02-14T06:03:24.568Z,1.67
2019-02-14T06:05:53.551Z,1.67
2019-02-14T06:08:23.526Z,1.68
2019-02-14T06:10:52.583Z,1.68
2019-02-14T06:13:21.572Z,1.70
2019-02-14T06:15:50.574Z,1.68
2019-02-14T06:18:19.585Z,1.69
2019-02-14T06:20:48.568Z,1.70
2019-02-14T06:23:17.610Z,1.68
2019-02-14T06:25:46.594Z,1.68
2019-02-14T06:28:15.683Z,1.69
2019-02-14T06:30:44.681Z,1.70
2019-02-14T06:33:13.685Z,1.67
2019-02-14T06:35:42.707Z,1.66
2019-02-14T06:38:11.729Z,1.65
2019-02-14T06:40:40.759Z,1.66
2019-02-14T06:43:09.786Z,1.64
2019-02-14T06:45:38.770Z,1.65
2019-02-14T06:48:07.781Z,1.65
2019-02-14T06:50:36.823Z,1.65
2019-02-14T06:53:05.813Z,1.64
2019-02-14T06:55:34.799Z,1.64
2019-02-14T06:58:03.834Z,1.61
2019-02-14T07:00:32.870Z,1.61
2019-02-14T07:03:01.832Z,1.61
2019-02-14T07:05:30.824Z,1.63
2019-02-14T07:07:59.845Z,1.65
2019-02-14T07:10:28.846Z,1.67
2019-02-14T07:12:57.838Z,1.72
2019-02-14T07:15:26.886Z,1.79
2019-02-14T07:17:55.859Z,1.82
2019-02-14T07:20:24.847Z,1.87
2019-02-14T07:22:53.860Z,1.99
2019-02-14T07:25:22.890Z,2.34
2019-02-14T07:27:51.922Z,2.72
2019-02-14T07:30:21.386Z,2.86
2019-02-14T07:32:50.415Z,2.85
2019-02-14T07:35:19.437Z,2.81
2019-02-14T07:37:48.408Z,2.76
2019-02-14T07:40:17.448Z,2.74
2019-02-14T07:42:46.433Z,2.74
2019-02-14T07:45:15.441Z,2.73
2019-02-14T07:47:44.437Z,2.74
2019-02-14T07:50:13.525Z,2.79
2019-02-14T07:52:42.534Z,2.84
2019-02-14T08:05:35.729Z,3.35
2019-02-14T08:08:04.721Z,3.70
2019-02-14T08:10:33.732Z,3.92
2019-02-14T08:13:02.730Z,4.11
2019-02-14T08:15:31.733Z,4.28
2019-02-14T08:18:00.764Z,4.50
2019-02-14T08:20:29.806Z,5.03
2019-02-14T08:22:58.786Z,5.36
2019-02-14T08:25:27.843Z,5.43
2019-02-14T08:27:56.886Z,5.36
2019-02-14T08:30:25.831Z,5.20
2019-02-14T08:32:54.862Z,5.12
2019-02-14T08:35:23.926Z,5.07
2019-02-14T08:37:54.004Z,5.06
2019-02-14T08:40:24.403Z,5.02
2019-02-14T08:42:53.421Z,5.04
2019-02-14T08:45:22.407Z,5.18
2019-02-14T08:47:51.420Z,5.42
2019-02-14T08:50:20.409Z,5.59
2019-02-14T08:52:49.412Z,5.78
2019-02-14T08:55:18.391Z,6.02
2019-02-14T08:57:47.407Z,6.34
2019-02-14T09:00:16.460Z,6.74
2019-02-14T09:02:45.442Z,7.03
2019-02-14T09:05:14.467Z,7.14
2019-02-14T09:07:43.505Z,7.13
2019-02-14T09:10:13.241Z,7.09
2019-02-14T09:12:42.208Z,6.98
2019-02-14T09:15:11.337Z,6.92
2019-02-14T09:17:40.385Z,6.85
2019-02-14T09:20:11.086Z,6.86
2019-02-14T09:22:40.112Z,7.12
2019-02-14T09:25:09.178Z,7.21
2019-02-14T09:27:38.170Z,7.20
2019-02-14T09:30:07.214Z,7.19
2019-02-14T09:32:36.210Z,7.17
2019-02-14T09:35:05.584Z,7.05
2019-02-14T09:37:34.590Z,6.95
2019-02-14T09:40:03.568Z,6.85
2019-02-14T09:42:32.582Z,6.81
2019-02-14T09:45:01.599Z,6.73
2019-02-14T09:47:30.614Z,6.68
2019-02-14T09:49:59.601Z,6.68
2019-02-14T09:52:28.667Z,6.73
2019-02-14T09:54:57.670Z,6.81
2019-02-14T09:57:26.650Z,6.88
2019-02-14T09:59:55.659Z,6.96
2019-02-14T10:02:25.891Z,6.95
2019-02-14T10:04:55.209Z,6.96
2019-02-14T10:07:24.244Z,6.97
2019-02-14T10:09:53.297Z,6.95
2019-02-14T10:12:22.277Z,7.05
2019-02-14T10:14:51.302Z,7.65
2019-02-14T10:17:22.176Z,8.18
2019-02-14T10:19:51.033Z,8.53
2019-02-14T10:22:20.075Z,8.94
2019-02-14T10:24:49.095Z,9.06
2019-02-14T10:27:18.106Z,9.35
2019-02-14T10:29:47.104Z,9.79
2019-02-14T10:32:16.221Z,10.22
2019-02-14T10:34:45.230Z,10.70
2019-02-14T10:37:14.256Z,11.16
2019-02-14T10:39:43.272Z,11.52
2019-02-14T10:42:12.318Z,11.78
2019-02-14T10:44:41.298Z,12.03
2019-02-14T10:47:10.302Z,12.23
2019-02-14T10:49:39.340Z,12.34
2019-02-14T10:52:08.340Z,12.34
2019-02-14T10:54:37.433Z,12.61
2019-02-14T10:57:06.490Z,12.83
2019-02-14T10:59:35.493Z,12.91
2019-02-14T11:02:04.514Z,12.89
2019-02-14T11:04:33.540Z,12.91
2019-02-14T11:07:02.543Z,12.98
2019-02-14T11:09:31.559Z,12.95
2019-02-14T11:12:00.561Z,12.98
2019-02-14T11:14:29.632Z,12.83
2019-02-14T11:16:58.641Z,12.81
2019-02-14T11:19:27.647Z,12.84
2019-02-14T11:21:56.630Z,12.70
2019-02-14T11:24:25.713Z,12.67
2019-02-14T11:26:54.650Z,12.49
2019-02-14T11:29:23.683Z,12.42
2019-02-14T11:31:52.685Z,12.56
2019-02-14T11:34:21.761Z,12.59
2019-02-14T11:36:50.758Z,12.55
2019-02-14T11:39:19.756Z,12.20
2019-02-14T11:41:48.782Z,12.53
2019-02-14T11:44:17.794Z,12.51
2019-02-14T11:46:51.488Z,12.51
2019-02-14T11:49:17.502Z,12.35
2019-02-14T11:51:46.526Z,12.23
2019-02-14T11:54:15.562Z,12.35
2019-02-14T11:56:44.544Z,12.47
2019-02-14T11:59:13.538Z,12.58
2019-02-14T12:01:42.571Z,12.61
2019-02-14T12:04:11.571Z,12.59
2019-02-14T12:06:40.648Z,12.62
2019-02-14T12:09:09.677Z,12.60
2019-02-14T12:11:38.838Z,12.58
2019-02-14T12:14:07.912Z,12.59
2019-02-14T12:16:36.940Z,12.55
2019-02-14T12:19:05.971Z,12.52
2019-02-14T12:21:34.995Z,12.61
2019-02-14T12:24:04.041Z,12.66
2019-02-14T12:26:33.047Z,12.69
2019-02-14T12:29:02.078Z,12.62
2019-02-14T12:31:31.097Z,12.69
2019-02-14T12:34:00.161Z,12.75
2019-02-14T12:36:29.144Z,12.86
2019-02-14T12:38:58.173Z,12.97
2019-02-14T12:41:27.248Z,13.07
2019-02-14T12:43:56.277Z,13.15
2019-02-14T12:46:25.309Z,13.14
2019-02-14T12:48:54.357Z,13.22
2019-02-14T12:51:23.376Z,13.24
2019-02-14T12:54:43.510Z,13.35
2019-02-14T12:57:13.110Z,13.40
2019-02-14T12:59:42.098Z,13.49
2019-02-14T13:02:11.171Z,13.39
2019-02-14T13:04:43.192Z,13.35
2019-02-14T13:07:12.412Z,13.33
2019-02-14T13:09:41.834Z,13.29
2019-02-14T13:12:11.046Z,13.32
2019-02-14T13:14:40.240Z,13.27
2019-02-14T13:17:09.436Z,13.30
2019-02-14T13:19:38.462Z,13.32
2019-02-14T13:22:07.827Z,13.37
2019-02-14T13:24:36.884Z,13.43
2019-02-14T13:27:06.000Z,13.51
2019-02-14T13:29:34.982Z,13.55
2019-02-14T13:32:03.993Z,13.64
2019-02-14T13:34:33.021Z,13.66
2019-02-14T13:37:02.339Z,13.68
2019-02-14T13:39:32.693Z,13.64
2019-02-14T13:42:01.882Z,13.67
2019-02-14T13:44:30.905Z,13.71
2019-02-14T13:46:59.967Z,13.78
2019-02-14T13:49:29.035Z,13.88
2019-02-14T13:51:58.054Z,13.91
2019-02-14T13:54:27.084Z,14.03
2019-02-14T13:56:56.093Z,14.12
2019-02-14T13:59:25.129Z,14.26
2019-02-14T14:01:54.150Z,14.37
2019-02-14T14:04:23.157Z,14.43
2019-02-14T14:06:52.192Z,14.42
2019-02-14T14:09:21.262Z,14.36
2019-02-14T14:11:50.255Z,14.31
2019-02-14T14:14:19.333Z,14.25
2019-02-14T14:16:48.332Z,14.27
2019-02-14T14:19:17.328Z,14.20
2019-02-14T14:21:46.365Z,14.16
2019-02-14T14:24:16.624Z,14.13
2019-02-14T14:26:45.607Z,14.14
2019-02-14T14:29:14.638Z,14.17
2019-02-14T14:31:43.659Z,14.21
2019-02-14T14:34:12.687Z,14.23
2019-02-14T14:36:41.710Z,14.22
2019-02-14T14:39:10.707Z,14.21
2019-02-14T14:41:39.723Z,14.14
2019-02-14T14:44:18.640Z,14.05
2019-02-14T14:47:00.332Z,14.02
2019-02-14T14:49:29.344Z,13.97
2019-02-14T14:51:58.428Z,13.96
2019-02-14T14:54:27.532Z,13.92
2019-02-14T14:56:56.578Z,13.88
2019-02-14T14:59:25.643Z,13.89
2019-02-14T15:01:54.641Z,13.83
2019-02-14T15:04:23.703Z,13.79
2019-02-14T15:06:52.709Z,13.78
2019-02-14T15:09:21.747Z,13.75
2019-02-14T15:11:50.913Z,13.74
2019-02-14T15:14:19.968Z,13.71
2019-02-14T15:16:48.966Z,13.67
2019-02-14T15:19:17.965Z,13.66
2019-02-14T15:21:47.785Z,13.62
2019-02-14T15:24:16.807Z,13.54
2019-02-14T15:26:45.875Z,13.44
2019-02-14T15:29:14.931Z,13.34
2019-02-14T15:31:43.948Z,13.25
2019-02-14T15:34:12.992Z,13.17
2019-02-14T15:36:42.020Z,13.06
2019-02-14T15:39:11.034Z,13.01
2019-02-14T15:41:40.026Z,12.91
2019-02-14T15:44:09.104Z,12.81
2019-02-14T15:46:38.212Z,12.65
2019-02-14T15:49:07.196Z,12.49
2019-02-14T15:51:36.232Z,12.34
2019-02-14T15:54:07.316Z,12.23
2019-02-14T15:56:36.120Z,12.13
2019-02-14T15:59:05.239Z,12.00
2019-02-14T16:01:34.294Z,11.88
2019-02-14T16:04:04.900Z,11.75
2019-02-14T16:06:34.055Z,11.61
2019-02-14T16:09:04.160Z,11.51
2019-02-14T16:11:34.010Z,11.40
2019-02-14T16:14:04.986Z,11.28
2019-02-14T16:16:35.120Z,11.13
2019-02-14T16:19:04.275Z,10.99
2019-02-14T16:21:33.802Z,10.87
2019-02-14T16:24:02.799Z,10.78
2019-02-14T16:26:31.901Z,10.72
2019-02-14T16:29:02.023Z,10.66
2019-02-14T16:31:31.968Z,10.63
2019-02-14T16:34:01.101Z,10.51
2019-02-14T16:36:32.387Z,10.40
2019-02-14T16:39:01.474Z,10.27
2019-02-14T16:41:30.610Z,10.18
2019-02-14T16:43:59.639Z,10.07
2019-02-14T16:46:28.824Z,9.95
2019-02-14T16:48:57.954Z,9.83
2019-02-14T16:51:27.152Z,9.70
2019-02-14T16:53:56.295Z,9.61
2019-02-14T16:56:25.328Z,9.53
2019-02-14T16:58:54.724Z,9.44
2019-02-14T17:01:28.163Z,9.33
2019-02-14T17:03:57.417Z,9.24
2019-02-14T17:06:26.505Z,9.14
2019-02-14T17:08:55.686Z,9.00
2019-02-14T17:11:24.717Z,8.88
2019-02-14T17:13:53.862Z,8.78
2019-02-14T17:16:22.846Z,8.68
2019-02-14T17:18:51.958Z,8.54
2019-02-14T17:21:20.967Z,8.45
2019-02-14T17:23:49.989Z,8.39
2019-02-14T17:26:19.298Z,8.31
2019-02-14T17:28:48.626Z,8.20
2019-02-14T17:31:17.710Z,8.12
2019-02-14T17:33:46.745Z,8.03
2019-02-14T17:36:15.854Z,7.95
2019-02-14T17:38:44.913Z,7.88
2019-02-14T17:41:13.997Z,7.82
2019-02-14T17:43:43.342Z,7.76
2019-02-14T17:46:14.906Z,7.71
2019-02-14T17:48:44.167Z,7.65
2019-02-14T17:51:13.484Z,7.53
2019-02-14T17:53:42.886Z,7.46
2019-02-14T17:56:12.295Z,7.41
2019-02-14T17:58:41.876Z,7.34
2019-02-14T18:01:11.230Z,7.26
2019-02-14T18:03:40.596Z,7.17
2019-02-14T18:06:10.322Z,7.10
2019-02-14T18:08:40.188Z,7.03
2019-02-14T18:11:09.576Z,6.95
2019-02-14T18:13:39.602Z,6.88
2019-02-14T18:16:10.360Z,6.79
2019-02-14T18:18:40.566Z,6.71
2019-02-14T18:21:10.285Z,6.63
2019-02-14T18:23:39.826Z,6.56
2019-02-14T18:26:09.453Z,6.50
2019-02-14T18:28:39.040Z,6.45
2019-02-14T18:31:09.567Z,6.36
2019-02-14T18:33:40.285Z,6.31
2019-02-14T18:36:10.007Z,6.28
2019-02-14T18:38:40.074Z,6.23
2019-02-14T18:41:09.993Z,6.17
2019-02-14T18:43:40.119Z,6.13
2019-02-14T18:46:10.566Z,6.08
2019-02-14T18:48:40.916Z,6.04
2019-02-14T18:51:11.015Z,5.98
2019-02-14T18:53:40.816Z,5.92
2019-02-14T18:56:11.093Z,5.84
2019-02-14T18:58:42.226Z,5.77
2019-02-14T19:01:12.958Z,5.67
2019-02-14T19:03:44.502Z,5.57
2019-02-14T19:06:16.731Z,5.52
2019-02-14T19:08:48.508Z,5.46
2019-02-14T19:11:25.294Z,5.44
2019-02-14T19:13:59.393Z,5.44
2019-02-14T19:16:32.594Z,5.43
2019-02-14T19:19:05.848Z,5.42
2019-02-14T19:21:37.836Z,5.40
2019-02-14T19:24:12.042Z,5.38
2019-02-14T19:26:45.247Z,5.33
2019-02-14T19:29:17.807Z,5.27
2019-02-14T19:31:49.715Z,5.19
2019-02-14T19:34:22.540Z,5.09
2019-02-14T19:36:55.213Z,5.05
2019-02-14T19:39:26.713Z,4.99
2019-02-14T19:41:58.180Z,4.94
2019-02-14T19:44:28.678Z,4.91
2019-02-14T19:47:02.845Z,4.89
2019-02-14T19:49:39.797Z,4.85
2019-02-14T19:52:12.589Z,4.80
2019-02-14T19:54:45.342Z,4.73
2019-02-14T19:57:16.733Z,4.66
2019-02-14T19:59:48.221Z,4.60
2019-02-14T20:02:31.476Z,4.54
2019-02-14T20:05:02.855Z,4.50
2019-02-14T20:07:36.431Z,4.44
2019-02-14T20:10:09.507Z,4.40
2019-02-14T20:12:40.361Z,4.36
2019-02-14T20:15:13.458Z,4.30
2019-02-14T20:17:43.556Z,4.25
2019-02-14T20:20:16.936Z,4.21
2019-02-14T20:22:47.405Z,4.18
2019-02-14T20:25:18.557Z,4.16
2019-02-14T20:27:49.974Z,4.10
2019-02-14T20:30:24.947Z,4.05
2019-02-14T20:33:03.936Z,3.98
2019-02-14T20:35:26.374Z,3.95
2019-02-14T20:37:56.545Z,3.92
2019-02-14T20:40:32.062Z,3.90
2019-02-14T20:43:01.913Z,3.85
2019-02-14T20:45:32.044Z,3.80
2019-02-14T20:48:01.620Z,3.75
2019-02-14T20:50:31.574Z,3.72
2019-02-14T20:53:00.928Z,3.70
2019-02-14T20:55:30.503Z,3.66
2019-02-14T20:58:00.056Z,3.63
2019-02-14T21:00:38.464Z,3.61
2019-02-14T21:03:08.034Z,3.61
2019-02-14T21:05:37.712Z,3.58
2019-02-14T21:08:07.286Z,3.55
2019-02-14T21:10:36.924Z,3.52
2019-02-14T21:13:06.203Z,3.49
2019-02-14T21:15:35.371Z,3.45
2019-02-14T21:18:04.704Z,3.41
2019-02-14T21:20:34.255Z,3.37
2019-02-14T21:23:03.560Z,3.35
2019-02-14T21:25:32.794Z,3.33
2019-02-14T21:28:01.945Z,3.26
2019-02-14T21:30:35.666Z,3.22
2019-02-14T21:33:02.815Z,3.20
2019-02-14T21:35:31.918Z,3.18
2019-02-14T21:38:01.017Z,3.14
2019-02-14T21:40:30.090Z,3.11
2019-02-14T21:42:59.084Z,3.08
2019-02-14T21:45:28.170Z,3.06
2019-02-14T21:47:57.181Z,3.02
2019-02-14T21:50:26.214Z,2.98
2019-02-14T21:52:55.241Z,2.97
2019-02-14T21:55:24.336Z,2.91
2019-02-14T21:57:53.495Z,2.83
2019-02-14T22:00:22.545Z,2.79
2019-02-14T22:02:51.598Z,2.77
2019-02-14T22:05:25.190Z,2.76
2019-02-14T22:07:51.377Z,2.76
2019-02-14T22:10:20.438Z,2.75
2019-02-14T22:12:49.801Z,2.71
2019-02-14T22:15:18.829Z,2.68
2019-02-14T22:17:47.881Z,2.66
2019-02-14T22:20:17.032Z,2.62
2019-02-14T22:22:46.028Z,2.60
2019-02-14T22:25:15.106Z,2.56
2019-02-14T22:27:44.118Z,2.52
2019-02-14T22:30:15.200Z,2.49
2019-02-14T22:32:44.299Z,2.47
2019-02-14T22:35:13.302Z,2.44
2019-02-14T22:37:42.307Z,2.41
2019-02-14T22:40:11.208Z,2.39
2019-02-14T22:42:46.632Z,2.37
2019-02-14T22:45:11.033Z,2.33
2019-02-14T22:47:40.049Z,2.28
2019-02-14T22:50:09.186Z,2.24
2019-02-14T22:52:38.311Z,2.23
2019-02-14T22:55:07.815Z,2.23
2019-02-14T22:57:36.776Z,2.22
2019-02-14T23:00:16.035Z,2.18
2019-02-14T23:02:45.021Z,2.15
2019-02-14T23:05:14.026Z,2.14
2019-02-14T23:07:43.052Z,2.12
2019-02-14T23:10:12.032Z,2.11
2019-02-14T23:12:41.011Z,2.08
2019-02-14T23:15:09.991Z,2.06
2019-02-14T23:17:39.064Z,2.03
2019-02-14T23:20:07.999Z,1.99
2019-02-14T23:22:36.990Z,1.96
2019-02-14T23:25:05.947Z,1.94
2019-02-14T23:27:34.893Z,1.93
2019-02-14T23:30:03.773Z,1.93
2019-02-14T23:32:32.686Z,1.91
2019-02-14T23:35:01.679Z,1.88
2019-02-14T23:37:30.687Z,1.84
2019-02-14T23:39:59.676Z,1.82
2019-02-14T23:42:28.697Z,1.81
2019-02-14T23:44:57.709Z,1.76
2019-02-14T23:47:26.739Z,1.71
2019-02-14T23:49:55.901Z,1.71
2019-02-14T23:52:24.930Z,1.70
2019-02-14T23:54:53.963Z,1.71
2019-02-14T23:57:23.029Z,1.72
2019-02-14T23:59:52.013Z,1.71
